createdAt,value
2023-03-05T00:01:55.835Z,3.40
2023-03-05T00:04:23.589Z,2.88
2023-03-05T00:06:52.939Z,3.67
2023-03-05T00:09:20.284Z,3.58
2023-03-05T00:11:47.662Z,3.63
2023-03-05T00:14:15.402Z,3.40
2023-03-05T00:16:45.554Z,3.50
2023-03-05T00:19:12.894Z,3.55
2023-03-05T00:21:42.101Z,3.22
2023-03-05T00:24:19.628Z,3.33
2023-03-05T00:26:47.243Z,3.63
2023-03-05T00:29:21.796Z,3.47
2023-03-05T00:31:49.500Z,3.05
2023-03-05T00:34:19.148Z,3.45
2023-03-05T00:36:49.378Z,3.70
2023-03-05T00:39:24.515Z,3.63
2023-03-05T00:41:52.686Z,3.33
2023-03-05T00:44:23.123Z,3.47
2023-03-05T00:46:53.361Z,3.78
2023-03-05T00:49:20.927Z,3.30
2023-03-05T00:51:51.518Z,3.72
2023-03-05T00:54:21.019Z,3.60
2023-03-05T00:56:51.071Z,3.78
2023-03-05T00:59:20.228Z,3.33
2023-03-05T01:01:47.598Z,2.97
2023-03-05T01:04:17.058Z,3.10
2023-03-05T01:06:46.287Z,3.33
2023-03-05T01:09:14.568Z,3.75
2023-03-05T01:11:44.024Z,3.58
2023-03-05T01:14:20.778Z,3.13
2023-03-05T01:16:48.478Z,3.60
2023-03-05T01:19:18.531Z,3.33
2023-03-05T01:21:46.986Z,2.92
2023-03-05T01:24:14.141Z,3.28
2023-03-05T01:26:41.699Z,3.53
2023-03-05T01:29:10.043Z,3.30
2023-03-05T01:31:40.113Z,3.38
2023-03-05T01:34:08.703Z,3.53
2023-03-05T01:36:36.344Z,3.40
2023-03-05T01:39:03.789Z,3.30
2023-03-05T01:41:31.305Z,3.25
2023-03-05T01:43:58.863Z,3.33
2023-03-05T01:46:25.989Z,3.00
2023-03-05T01:48:59.160Z,3.05
2023-03-05T01:51:31.958Z,3.58
2023-03-05T01:54:01.940Z,3.58
2023-03-05T01:56:30.561Z,3.50
2023-03-05T01:59:03.747Z,3.30
2023-03-05T02:01:41.117Z,3.13
2023-03-05T02:04:11.609Z,3.50
2023-03-05T02:06:41.557Z,3.25
2023-03-05T02:09:09.423Z,3.08
2023-03-05T02:11:37.032Z,3.20
2023-03-05T02:14:09.053Z,3.35
2023-03-05T02:16:38.439Z,3.07
2023-03-05T02:19:08.121Z,3.33
2023-03-05T02:21:45.601Z,3.55
2023-03-05T02:24:16.821Z,3.33
2023-03-05T02:26:45.321Z,3.40
2023-03-05T02:29:20.063Z,3.13
2023-03-05T02:31:51.862Z,3.33
2023-03-05T02:34:19.012Z,3.38
2023-03-05T02:36:50.741Z,3.10
2023-03-05T02:39:18.589Z,3.25
2023-03-05T02:41:47.979Z,3.33
2023-03-05T02:44:15.358Z,3.45
2023-03-05T02:46:44.986Z,3.05
2023-03-05T02:49:12.211Z,3.10
2023-03-05T02:51:39.462Z,3.33
2023-03-05T02:54:07.669Z,3.28
2023-03-05T02:56:35.544Z,3.17
2023-03-05T02:59:02.635Z,3.00
2023-03-05T03:01:32.414Z,3.67
2023-03-05T03:04:01.263Z,3.58
2023-03-05T03:06:33.967Z,3.63
2023-03-05T03:09:04.932Z,3.10
2023-03-05T03:11:32.065Z,2.83
2023-03-05T03:14:02.753Z,3.40
2023-03-05T03:16:30.713Z,3.20
2023-03-05T03:18:57.844Z,2.80
2023-03-05T03:21:27.752Z,3.20
2023-03-05T03:23:55.172Z,3.30
2023-03-05T03:26:25.519Z,4.18
2023-03-05T03:28:52.689Z,3.38
2023-03-05T03:31:20.243Z,3.45
2023-03-05T03:33:50.653Z,3.25
2023-03-05T03:36:17.816Z,3.40
2023-03-05T03:38:45.274Z,3.30
2023-03-05T03:41:12.411Z,3.20
2023-03-05T03:43:39.900Z,2.90
2023-03-05T03:46:08.460Z,3.20
2023-03-05T03:48:36.093Z,3.05
2023-03-05T03:51:07.414Z,3.15
2023-03-05T03:53:35.064Z,3.10
2023-03-05T03:56:03.448Z,3.33
2023-03-05T03:58:30.687Z,3.50
2023-03-05T04:00:58.233Z,2.83
2023-03-05T04:03:27.651Z,3.15
2023-03-05T04:05:55.529Z,3.55
2023-03-05T04:08:22.812Z,2.92
2023-03-05T04:10:51.023Z,3.50
2023-03-05T04:13:18.225Z,3.15
2023-03-05T04:15:48.333Z,2.80
2023-03-05T04:18:15.553Z,3.47
2023-03-05T04:20:45.846Z,2.95
2023-03-05T04:23:13.461Z,2.60
2023-03-05T04:25:40.718Z,2.95
2023-03-05T04:28:09.977Z,3.00
2023-03-05T04:30:37.169Z,3.05
2023-03-05T04:33:04.387Z,3.33
2023-03-05T04:35:32.033Z,2.80
2023-03-05T04:37:59.537Z,3.10
2023-03-05T04:40:26.705Z,3.28
2023-03-05T04:42:54.856Z,2.78
2023-03-05T04:45:22.325Z,2.90
2023-03-05T04:47:51.692Z,2.75
2023-03-05T04:50:19.210Z,2.97
2023-03-05T04:52:52.890Z,2.88
2023-03-05T04:55:20.028Z,3.20
2023-03-05T04:57:49.719Z,3.03
2023-03-05T05:00:17.571Z,3.15
2023-03-05T05:02:47.424Z,3.03
2023-03-05T05:05:18.105Z,3.15
2023-03-05T05:07:48.130Z,2.72
2023-03-05T05:10:17.195Z,2.65
2023-03-05T05:12:46.777Z,2.70
2023-03-05T05:15:14.669Z,3.00
2023-03-05T05:17:41.836Z,2.38
2023-03-05T05:20:11.559Z,2.83
2023-03-05T05:22:39.142Z,2.90
2023-03-05T05:25:06.476Z,2.70
2023-03-05T05:27:33.756Z,2.90
2023-03-05T05:30:01.309Z,2.92
2023-03-05T05:32:28.680Z,2.92
2023-03-05T05:34:58.515Z,2.70
2023-03-05T05:37:26.712Z,2.72
2023-03-05T05:39:54.169Z,2.90
2023-03-05T05:42:23.887Z,2.72
2023-03-05T05:44:51.371Z,3.10
2023-03-05T05:47:21.793Z,2.75
2023-03-05T05:49:49.114Z,2.83
2023-03-05T05:52:19.580Z,2.75
2023-03-05T05:54:46.751Z,2.90
2023-03-05T05:57:18.916Z,2.92
2023-03-05T05:59:46.202Z,2.67
2023-03-05T06:02:14.577Z,2.80
2023-03-05T06:04:43.764Z,2.83
2023-03-05T06:07:10.943Z,3.30
2023-03-05T06:09:42.384Z,2.95
2023-03-05T06:12:12.518Z,3.10
2023-03-05T06:14:39.741Z,2.50
2023-03-05T06:17:11.153Z,2.88
2023-03-05T06:19:38.675Z,2.80
2023-03-05T06:22:06.173Z,2.85
2023-03-05T06:24:33.312Z,2.60
2023-03-05T06:27:06.189Z,2.40
2023-03-05T06:29:33.450Z,2.50
2023-03-05T06:32:00.789Z,2.55
2023-03-05T06:34:30.227Z,2.65
2023-03-05T06:36:57.513Z,2.75
2023-03-05T06:39:24.880Z,2.80
2023-03-05T06:41:52.262Z,2.75
2023-03-05T06:44:19.645Z,3.03
2023-03-05T06:46:49.075Z,2.72
2023-03-05T06:49:16.253Z,2.60
2023-03-05T06:51:43.671Z,2.88
2023-03-05T06:54:16.196Z,2.75
2023-03-05T06:56:45.635Z,2.77
2023-03-05T06:59:15.431Z,2.67
2023-03-05T07:01:44.008Z,2.95
2023-03-05T07:04:12.663Z,2.65
2023-03-05T07:06:42.230Z,3.35
2023-03-05T07:09:13.853Z,3.05
2023-03-05T07:11:41.007Z,2.88
2023-03-05T07:14:08.521Z,2.83
2023-03-05T07:16:35.987Z,3.10
2023-03-05T07:19:06.407Z,2.80
2023-03-05T07:21:37.538Z,2.70
2023-03-05T07:24:08.881Z,2.85
2023-03-05T07:26:43.888Z,2.83
2023-03-05T07:29:18.395Z,2.80
2023-03-05T07:31:46.029Z,3.10
2023-03-05T07:34:13.820Z,3.10
2023-03-05T07:36:42.353Z,3.70
2023-03-05T07:39:11.488Z,3.40
2023-03-05T07:41:39.027Z,2.85
2023-03-05T07:44:06.379Z,3.80
2023-03-05T07:46:36.275Z,3.25
2023-03-05T07:49:05.947Z,3.15
2023-03-05T07:51:33.432Z,3.88
2023-03-05T07:54:03.779Z,3.13
2023-03-05T07:56:35.200Z,3.90
2023-03-05T07:59:06.790Z,3.90
2023-03-05T08:01:39.868Z,3.50
2023-03-05T08:04:08.489Z,3.35
2023-03-05T08:06:39.465Z,3.30
2023-03-05T08:09:09.089Z,3.70
2023-03-05T08:11:40.238Z,3.97
2023-03-05T08:14:07.692Z,4.22
2023-03-05T08:16:35.454Z,3.33
2023-03-05T08:19:06.863Z,3.25
2023-03-05T08:21:36.049Z,3.58
2023-03-05T08:24:05.916Z,3.92
2023-03-05T08:26:38.355Z,4.43
2023-03-05T08:29:07.011Z,5.03
2023-03-05T08:31:35.299Z,5.32
2023-03-05T08:34:03.795Z,6.93
2023-03-05T08:36:33.402Z,4.85
2023-03-05T08:39:00.844Z,5.55
2023-03-05T08:41:28.581Z,5.35
2023-03-05T08:43:55.915Z,5.15
2023-03-05T08:46:23.248Z,5.90
2023-03-05T08:48:51.373Z,5.50
2023-03-05T08:51:25.781Z,6.47
2023-03-05T08:53:55.205Z,5.97
2023-03-05T08:56:26.151Z,5.70
2023-03-05T08:58:53.874Z,5.22
2023-03-05T09:01:21.111Z,5.85
2023-03-05T09:03:48.858Z,5.15
2023-03-05T09:06:18.425Z,5.72
2023-03-05T09:08:48.128Z,5.72
2023-03-05T09:11:15.483Z,5.53
2023-03-05T09:13:43.125Z,6.72
2023-03-05T09:16:18.071Z,5.70
2023-03-05T09:18:45.663Z,4.95
2023-03-05T09:21:15.925Z,5.00
2023-03-05T09:23:44.287Z,5.03
2023-03-05T09:26:13.298Z,5.40
2023-03-05T09:28:43.668Z,6.80
2023-03-05T09:31:11.369Z,5.70
2023-03-05T09:33:39.302Z,6.60
2023-03-05T09:36:28.869Z,6.32
2023-03-05T09:38:56.359Z,7.05
2023-03-05T09:41:37.197Z,6.38
2023-03-05T09:44:42.089Z,5.93
2023-03-05T09:47:43.537Z,6.00
2023-03-05T09:50:23.544Z,6.38
2023-03-05T09:52:57.329Z,5.97
2023-03-05T09:55:40.554Z,6.43
2023-03-05T09:58:25.293Z,6.85
2023-03-05T10:01:00.465Z,6.18
2023-03-05T10:03:36.462Z,6.25
2023-03-05T10:06:15.543Z,6.53
2023-03-05T10:09:24.280Z,6.35
2023-03-05T10:12:01.181Z,5.47
2023-03-05T10:14:32.009Z,6.00
2023-03-05T10:19:56.096Z,6.38
2023-03-05T10:22:28.631Z,6.30
2023-03-05T10:25:22.753Z,6.32
2023-03-05T10:28:00.790Z,6.53
2023-03-05T10:30:46.771Z,6.50
2023-03-05T10:33:23.168Z,5.63
2023-03-05T10:36:22.697Z,6.07
2023-03-05T10:39:22.460Z,6.75
2023-03-05T10:42:06.191Z,6.68
2023-03-05T10:44:48.080Z,6.07
2023-03-05T10:47:30.225Z,6.20
2023-03-05T10:49:59.148Z,5.32
2023-03-05T10:52:39.700Z,4.80
2023-03-05T10:55:19.682Z,4.70
2023-03-05T10:57:47.366Z,4.78
2023-03-05T11:00:30.167Z,4.97
2023-03-05T11:03:03.237Z,4.50
2023-03-05T11:08:31.083Z,4.65
2023-03-05T11:11:18.371Z,4.72
2023-03-05T11:13:54.982Z,4.93
2023-03-05T11:16:32.717Z,4.57
2023-03-05T11:19:19.776Z,4.57
2023-03-05T11:22:10.953Z,4.60
2023-03-05T11:24:38.268Z,4.55
2023-03-05T11:27:31.528Z,5.03
2023-03-05T11:29:59.337Z,5.72
2023-03-05T11:32:29.310Z,4.93
2023-03-05T11:34:57.517Z,6.20
2023-03-05T11:37:30.884Z,5.68
2023-03-05T11:42:54.108Z,6.57
2023-03-05T11:45:23.159Z,6.80
2023-03-05T11:47:53.337Z,5.75
2023-03-05T11:50:28.650Z,7.28
2023-03-05T11:53:09.843Z,6.15
2023-03-05T11:56:19.132Z,7.70
2023-03-05T11:59:14.682Z,7.28
2023-03-05T12:01:48.065Z,7.40
2023-03-05T12:04:16.484Z,7.97
2023-03-05T12:06:57.876Z,6.95
2023-03-05T12:09:43.041Z,6.70
2023-03-05T12:12:37.688Z,8.02
2023-03-05T12:15:17.459Z,7.83
2023-03-05T12:17:59.015Z,7.63
2023-03-05T12:21:08.505Z,7.22
2023-03-05T12:23:59.298Z,7.70
2023-03-05T12:27:03.789Z,7.38
2023-03-05T12:29:57.208Z,7.22
2023-03-05T12:32:34.086Z,7.93
2023-03-05T12:35:05.649Z,7.85
2023-03-05T12:37:33.018Z,7.63
2023-03-05T12:40:04.338Z,7.68
2023-03-05T12:42:32.337Z,8.27
2023-03-05T12:45:19.757Z,8.57
2023-03-05T12:48:12.416Z,8.15
2023-03-05T12:50:40.522Z,7.53
2023-03-05T12:53:17.033Z,7.38
2023-03-05T12:55:47.220Z,6.90
2023-03-05T12:58:33.304Z,8.23
2023-03-05T13:01:27.934Z,7.40
2023-03-05T13:03:57.794Z,7.50
2023-03-05T13:06:35.336Z,7.50
2023-03-05T13:09:27.434Z,7.35
2023-03-05T13:11:56.174Z,7.07
2023-03-05T13:14:43.834Z,7.07
2023-03-05T13:17:30.738Z,7.47
2023-03-05T13:19:59.441Z,7.70
2023-03-05T13:22:26.915Z,7.40
2023-03-05T13:25:17.062Z,7.00
2023-03-05T13:27:44.437Z,6.07
2023-03-05T13:30:27.888Z,7.97
2023-03-05T13:33:02.959Z,7.28
2023-03-05T13:35:33.989Z,8.38
2023-03-05T13:38:02.158Z,7.25
2023-03-05T13:40:33.881Z,7.43
2023-03-05T13:43:20.626Z,6.53
2023-03-05T13:45:56.539Z,6.53
2023-03-05T13:48:25.472Z,6.63
2023-03-05T13:50:58.557Z,5.82
2023-03-05T13:55:58.845Z,5.90
2023-03-05T13:58:53.569Z,6.22
2023-03-05T14:01:44.085Z,6.10
2023-03-05T14:04:15.613Z,5.65
2023-03-05T14:06:49.304Z,5.82
2023-03-05T14:09:24.122Z,5.75
2023-03-05T14:12:19.286Z,6.30
2023-03-05T14:14:47.474Z,5.35
2023-03-05T14:17:43.273Z,5.30
2023-03-05T14:20:13.456Z,5.53
2023-03-05T14:22:43.385Z,5.88
2023-03-05T14:25:42.439Z,4.57
2023-03-05T14:28:18.818Z,4.90
2023-03-05T14:30:52.483Z,5.47
2023-03-05T14:33:33.894Z,5.35
2023-03-05T14:36:03.044Z,5.60
2023-03-05T14:38:34.103Z,6.15
2023-03-05T14:41:39.271Z,5.53
2023-03-05T14:44:16.085Z,5.70
2023-03-05T14:46:44.199Z,5.43
2023-03-05T14:49:12.097Z,5.35
2023-03-05T14:51:42.654Z,5.35
2023-03-05T14:54:26.915Z,4.72
2023-03-05T14:56:54.273Z,5.38
2023-03-05T14:59:21.793Z,5.10
2023-03-05T15:01:51.732Z,4.95
2023-03-05T15:04:19.827Z,4.60
2023-03-05T15:06:50.868Z,5.15
2023-03-05T15:09:20.972Z,4.90
2023-03-05T15:11:48.553Z,4.93
2023-03-05T15:14:15.978Z,5.45
2023-03-05T15:16:48.840Z,5.45
2023-03-05T15:19:17.000Z,5.18
2023-03-05T15:21:44.482Z,5.32
2023-03-05T15:24:14.741Z,5.53
2023-03-05T15:26:44.320Z,4.43
2023-03-05T15:29:11.494Z,4.78
2023-03-05T15:31:41.377Z,4.70
2023-03-05T15:34:12.155Z,5.68
2023-03-05T15:36:39.298Z,5.82
2023-03-05T15:39:07.179Z,5.60
2023-03-05T15:41:34.384Z,4.25
2023-03-05T15:44:03.904Z,5.10
2023-03-05T15:46:32.527Z,5.20
2023-03-05T15:48:59.986Z,4.70
2023-03-05T15:51:27.468Z,4.78
2023-03-05T15:53:54.736Z,4.60
2023-03-05T15:56:22.075Z,4.80
2023-03-05T15:58:51.760Z,4.82
2023-03-05T16:01:20.620Z,5.10
2023-03-05T16:03:47.940Z,4.75
2023-03-05T16:06:22.313Z,5.22
2023-03-05T16:08:52.451Z,5.00
2023-03-05T16:11:20.236Z,4.80
2023-03-05T16:13:47.903Z,4.85
2023-03-05T16:16:18.318Z,5.10
2023-03-05T16:18:48.102Z,5.38
2023-03-05T16:21:20.845Z,5.38
2023-03-05T16:23:49.822Z,4.93
2023-03-05T16:26:17.209Z,4.90
2023-03-05T16:28:44.964Z,5.25
2023-03-05T16:31:12.578Z,4.78
2023-03-05T16:33:39.932Z,5.22
2023-03-05T16:36:24.711Z,5.07
2023-03-05T16:38:54.523Z,4.95
2023-03-05T16:41:24.372Z,4.45
2023-03-05T16:43:53.524Z,4.53
2023-03-05T16:46:20.844Z,4.97
2023-03-05T16:48:48.199Z,5.25
2023-03-05T16:51:15.429Z,4.95
2023-03-05T16:53:42.822Z,4.72
2023-03-05T16:56:10.932Z,4.90
2023-03-05T16:58:40.621Z,4.88
2023-03-05T17:01:17.761Z,5.05
2023-03-05T17:03:50.604Z,5.35
2023-03-05T17:06:21.723Z,4.80
2023-03-05T17:08:50.031Z,4.80
2023-03-05T17:11:18.763Z,5.20
2023-03-05T17:13:48.792Z,5.25
2023-03-05T17:16:23.644Z,5.03
2023-03-05T17:18:51.692Z,5.22
2023-03-05T17:21:19.034Z,5.15
2023-03-05T17:23:46.315Z,5.25
2023-03-05T17:26:17.844Z,5.35
2023-03-05T17:28:47.577Z,5.05
2023-03-05T17:31:15.195Z,4.93
2023-03-05T17:33:42.543Z,4.93
2023-03-05T17:36:15.314Z,5.53
2023-03-05T17:38:47.556Z,5.15
2023-03-05T17:41:15.838Z,5.00
2023-03-05T17:43:43.290Z,5.00
2023-03-05T17:46:13.414Z,5.20
2023-03-05T17:48:41.634Z,5.13
2023-03-05T17:51:12.484Z,5.65
2023-03-05T17:53:40.400Z,5.07
2023-03-05T17:56:12.406Z,5.65
2023-03-05T17:58:40.439Z,5.13
2023-03-05T18:01:08.369Z,5.03
2023-03-05T18:03:39.358Z,5.43
2023-03-05T18:06:06.785Z,5.57
2023-03-05T18:08:34.158Z,4.82
2023-03-05T18:11:08.916Z,6.38
2023-03-05T18:13:37.516Z,6.30
2023-03-05T18:16:11.082Z,5.75
2023-03-05T18:18:38.869Z,5.05
2023-03-05T18:21:07.874Z,5.78
2023-03-05T18:23:43.036Z,4.97
2023-03-05T18:26:12.729Z,5.43
2023-03-05T18:28:50.048Z,4.50
2023-03-05T18:31:19.208Z,4.47
2023-03-05T18:33:47.640Z,4.90
2023-03-05T18:36:15.076Z,4.50
2023-03-05T18:38:44.349Z,4.60
2023-03-05T18:41:21.003Z,4.00
2023-03-05T18:43:48.753Z,3.92
2023-03-05T18:46:17.266Z,3.70
2023-03-05T18:48:44.572Z,4.32
2023-03-05T18:51:21.553Z,4.20
2023-03-05T18:53:50.163Z,4.13
2023-03-05T18:56:17.538Z,3.95
2023-03-05T18:58:45.364Z,4.10
2023-03-05T19:01:12.641Z,3.65
2023-03-05T19:03:42.063Z,4.22
2023-03-05T19:06:09.713Z,4.10
2023-03-05T19:08:37.072Z,4.70
2023-03-05T19:11:14.489Z,4.60
2023-03-05T19:13:48.828Z,4.53
2023-03-05T19:16:26.567Z,4.45
2023-03-05T19:19:16.418Z,5.10
2023-03-05T19:21:46.395Z,4.13
2023-03-05T19:24:14.630Z,6.15
2023-03-05T19:26:42.945Z,7.13
2023-03-05T19:29:12.756Z,5.95
2023-03-05T19:31:41.543Z,6.68
2023-03-05T19:34:08.768Z,6.03
2023-03-05T19:36:38.269Z,6.20
2023-03-05T19:39:07.386Z,5.78
2023-03-05T19:41:39.849Z,5.82
2023-03-05T19:44:09.516Z,5.73
2023-03-05T19:46:36.900Z,5.80
2023-03-05T19:49:04.506Z,5.65
2023-03-05T19:51:32.051Z,5.35
2023-03-05T19:53:59.702Z,4.90
2023-03-05T19:56:26.931Z,5.40
2023-03-05T19:58:54.141Z,5.45
2023-03-05T20:01:26.961Z,5.22
2023-03-05T20:03:58.442Z,5.38
2023-03-05T20:06:29.994Z,4.93
2023-03-05T20:08:58.622Z,4.95
2023-03-05T20:11:26.558Z,5.80
2023-03-05T20:13:58.561Z,5.13
2023-03-05T20:16:29.659Z,5.32
2023-03-05T20:18:58.518Z,4.63
2023-03-05T20:21:29.272Z,4.35
2023-03-05T20:24:03.423Z,5.28
2023-03-05T20:26:32.989Z,4.60
2023-03-05T20:29:04.728Z,4.30
2023-03-05T20:31:35.270Z,4.38
2023-03-05T20:34:09.518Z,4.45
2023-03-05T20:36:37.618Z,5.03
2023-03-05T20:39:08.939Z,5.63
2023-03-05T20:41:38.614Z,5.32
2023-03-05T20:44:07.971Z,6.47
2023-03-05T20:46:51.954Z,6.30
2023-03-05T20:49:21.340Z,6.25
2023-03-05T20:51:51.124Z,6.75
2023-03-05T20:54:18.560Z,6.13
2023-03-05T20:56:48.054Z,6.88
2023-03-05T20:59:16.846Z,6.57
2023-03-05T21:01:46.030Z,6.45
2023-03-05T21:04:13.303Z,6.70
2023-03-05T21:06:43.180Z,5.90
2023-03-05T21:09:10.371Z,6.63
2023-03-05T21:11:39.850Z,6.90
2023-03-05T21:14:07.302Z,6.72
2023-03-05T21:16:34.469Z,6.68
2023-03-05T21:19:02.578Z,6.93
2023-03-05T21:21:30.317Z,6.18
2023-03-05T21:23:57.551Z,6.63
2023-03-05T21:26:24.901Z,6.45
2023-03-05T21:28:52.213Z,7.20
2023-03-05T21:31:22.627Z,6.82
2023-03-05T21:33:49.971Z,6.80
2023-03-05T21:36:18.807Z,6.70
2023-03-05T21:38:47.420Z,6.85
2023-03-05T21:41:14.933Z,6.00
2023-03-05T21:43:42.726Z,6.93
2023-03-05T21:46:12.516Z,6.18
2023-03-05T21:48:39.888Z,7.05
2023-03-05T21:51:12.570Z,7.00
2023-03-05T21:53:42.887Z,6.55
2023-03-05T21:56:22.389Z,7.05
2023-03-05T21:58:50.599Z,7.05
2023-03-05T22:01:20.929Z,7.10
2023-03-05T22:03:51.977Z,8.05
2023-03-05T22:06:21.618Z,5.95
2023-03-05T22:08:48.956Z,7.50
2023-03-05T22:11:17.736Z,6.85
2023-03-05T22:13:45.698Z,6.60
2023-03-05T22:16:22.326Z,7.32
2023-03-05T22:18:52.155Z,7.03
2023-03-05T22:21:26.502Z,7.00
2023-03-05T22:23:57.019Z,6.78
2023-03-05T22:26:26.197Z,6.45
2023-03-05T22:28:54.027Z,7.00
2023-03-05T22:31:28.196Z,6.55
2023-03-05T22:33:55.367Z,6.45
2023-03-05T22:36:23.356Z,6.10
2023-03-05T22:38:51.250Z,7.38
2023-03-05T22:41:19.926Z,6.43
2023-03-05T22:43:49.259Z,6.72
2023-03-05T22:46:27.500Z,6.85
2023-03-05T22:48:54.750Z,7.57
2023-03-05T22:51:22.158Z,6.63
2023-03-05T22:53:49.576Z,5.72
2023-03-05T22:56:18.961Z,6.68
2023-03-05T22:58:47.396Z,6.10
2023-03-05T23:01:17.493Z,6.13
2023-03-05T23:03:53.412Z,6.35
2023-03-05T23:06:21.196Z,5.88
2023-03-05T23:08:48.301Z,6.38
2023-03-05T23:11:17.979Z,5.70
2023-03-05T23:13:48.980Z,6.15
2023-03-05T23:16:18.576Z,6.68
2023-03-05T23:18:46.022Z,6.40
2023-03-05T23:21:13.431Z,5.88
2023-03-05T23:23:40.602Z,6.30
2023-03-05T23:26:07.963Z,5.50
2023-03-05T23:28:35.186Z,6.22
2023-03-05T23:31:04.749Z,6.15
2023-03-05T23:33:34.895Z,5.45
2023-03-05T23:36:02.382Z,5.47
2023-03-05T23:38:30.465Z,5.90
2023-03-05T23:41:01.427Z,5.90
2023-03-05T23:43:30.220Z,6.03
2023-03-05T23:45:57.570Z,6.55
2023-03-05T23:48:26.593Z,6.00
2023-03-05T23:50:54.942Z,6.22
2023-03-05T23:53:25.178Z,6.47
2023-03-05T23:55:53.040Z,6.20
2023-03-05T23:58:23.024Z,6.07
